sensor_id;sensor_type;location;lat;lon;timestamp;P1;durP1;ratioP1;P2;durP2;ratioP2
65045;SDS011;54657;52.022;5.534;2022-12-18T00:02:23;37.75;;;16.40;;
65045;SDS011;54657;52.022;5.534;2022-12-18T00:04:49;33.63;;;16.27;;
65045;SDS011;54657;52.022;5.534;2022-12-18T00:07:14;38.35;;;17.45;;
65045;SDS011;54657;52.022;5.534;2022-12-18T00:09:40;36.10;;;16.17;;
65045;SDS011;54657;52.022;5.534;2022-12-18T00:12:06;39.03;;;17.30;;
65045;SDS011;54657;52.022;5.534;2022-12-18T00:14:32;34.88;;;16.70;;
65045;SDS011;54657;52.022;5.534;2022-12-18T00:16:57;36.67;;;16.10;;
65045;SDS011;54657;52.022;5.534;2022-12-18T00:19:25;34.60;;;16.02;;
65045;SDS011;54657;52.022;5.534;2022-12-18T00:21:51;40.15;;;16.92;;
65045;SDS011;54657;52.022;5.534;2022-12-18T00:24:17;34.13;;;16.23;;
65045;SDS011;54657;52.022;5.534;2022-12-18T00:26:42;43.40;;;17.63;;
65045;SDS011;54657;52.022;5.534;2022-12-18T00:29:10;35.30;;;16.35;;
65045;SDS011;54657;52.022;5.534;2022-12-18T00:31:38;40.22;;;17.30;;
65045;SDS011;54657;52.022;5.534;2022-12-18T00:34:04;43.17;;;17.95;;
65045;SDS011;54657;52.022;5.534;2022-12-18T00:36:31;42.38;;;18.38;;
65045;SDS011;54657;52.022;5.534;2022-12-18T00:38:59;38.20;;;17.58;;
65045;SDS011;54657;52.022;5.534;2022-12-18T00:41:26;41.67;;;17.00;;
65045;SDS011;54657;52.022;5.534;2022-12-18T00:44:12;35.38;;;16.63;;
65045;SDS011;54657;52.022;5.534;2022-12-18T00:46:40;36.17;;;17.35;;
65045;SDS011;54657;52.022;5.534;2022-12-18T00:49:07;42.38;;;17.48;;
65045;SDS011;54657;52.022;5.534;2022-12-18T00:51:33;42.22;;;18.67;;
65045;SDS011;54657;52.022;5.534;2022-12-18T00:53:58;40.75;;;17.73;;
65045;SDS011;54657;52.022;5.534;2022-12-18T00:56:24;39.38;;;17.33;;
65045;SDS011;54657;52.022;5.534;2022-12-18T00:58:49;43.38;;;18.75;;
65045;SDS011;54657;52.022;5.534;2022-12-18T01:01:15;42.25;;;18.42;;
65045;SDS011;54657;52.022;5.534;2022-12-18T01:03:41;41.53;;;17.20;;
65045;SDS011;54657;52.022;5.534;2022-12-18T01:06:08;39.38;;;18.80;;
65045;SDS011;54657;52.022;5.534;2022-12-18T01:08:35;41.05;;;18.42;;
65045;SDS011;54657;52.022;5.534;2022-12-18T01:11:01;42.08;;;17.83;;
65045;SDS011;54657;52.022;5.534;2022-12-18T01:13:36;42.08;;;18.73;;
65045;SDS011;54657;52.022;5.534;2022-12-18T01:16:02;41.25;;;17.92;;
65045;SDS011;54657;52.022;5.534;2022-12-18T01:18:28;41.60;;;17.52;;
65045;SDS011;54657;52.022;5.534;2022-12-18T01:20:53;41.40;;;17.60;;
65045;SDS011;54657;52.022;5.534;2022-12-18T01:23:19;42.40;;;17.00;;
65045;SDS011;54657;52.022;5.534;2022-12-18T01:25:45;39.83;;;18.27;;
65045;SDS011;54657;52.022;5.534;2022-12-18T01:28:10;36.33;;;15.95;;
65045;SDS011;54657;52.022;5.534;2022-12-18T01:30:36;35.50;;;15.65;;
65045;SDS011;54657;52.022;5.534;2022-12-18T01:33:02;36.83;;;17.13;;
65045;SDS011;54657;52.022;5.534;2022-12-18T01:35:29;36.88;;;15.95;;
65045;SDS011;54657;52.022;5.534;2022-12-18T01:37:55;35.53;;;17.02;;
65045;SDS011;54657;52.022;5.534;2022-12-18T01:40:21;36.00;;;16.58;;
65045;SDS011;54657;52.022;5.534;2022-12-18T01:42:53;36.05;;;17.02;;
65045;SDS011;54657;52.022;5.534;2022-12-18T01:45:23;32.08;;;15.70;;
65045;SDS011;54657;52.022;5.534;2022-12-18T01:47:56;37.78;;;17.27;;
65045;SDS011;54657;52.022;5.534;2022-12-18T01:53:14;32.55;;;15.32;;
65045;SDS011;54657;52.022;5.534;2022-12-18T01:55:47;33.50;;;15.85;;
65045;SDS011;54657;52.022;5.534;2022-12-18T01:58:15;31.35;;;15.85;;
65045;SDS011;54657;52.022;5.534;2022-12-18T02:00:41;36.75;;;16.20;;
65045;SDS011;54657;52.022;5.534;2022-12-18T02:03:07;36.50;;;17.27;;
65045;SDS011;54657;52.022;5.534;2022-12-18T02:05:40;30.25;;;14.57;;
65045;SDS011;54657;52.022;5.534;2022-12-18T02:08:24;35.20;;;16.42;;
65045;SDS011;54657;52.022;5.534;2022-12-18T02:19:40;36.50;;;15.63;;
65045;SDS011;54657;52.022;5.534;2022-12-18T02:27:52;31.10;;;14.27;;
65045;SDS011;54657;52.022;5.534;2022-12-18T02:30:23;33.72;;;15.73;;
65045;SDS011;54657;52.022;5.534;2022-12-18T02:32:50;30.33;;;15.18;;
65045;SDS011;54657;52.022;5.534;2022-12-18T02:35:22;27.73;;;14.20;;
65045;SDS011;54657;52.022;5.534;2022-12-18T02:37:50;31.63;;;15.13;;
65045;SDS011;54657;52.022;5.534;2022-12-18T02:40:19;32.60;;;15.40;;
65045;SDS011;54657;52.022;5.534;2022-12-18T02:42:48;28.45;;;14.52;;
65045;SDS011;54657;52.022;5.534;2022-12-18T02:45:14;30.63;;;14.50;;
65045;SDS011;54657;52.022;5.534;2022-12-18T02:47:40;30.17;;;15.15;;
65045;SDS011;54657;52.022;5.534;2022-12-18T02:53:00;26.80;;;14.38;;
65045;SDS011;54657;52.022;5.534;2022-12-18T02:55:44;28.25;;;14.23;;
65045;SDS011;54657;52.022;5.534;2022-12-18T03:04:10;28.92;;;14.85;;
65045;SDS011;54657;52.022;5.534;2022-12-18T03:06:48;32.25;;;14.23;;
65045;SDS011;54657;52.022;5.534;2022-12-18T03:09:19;30.55;;;13.82;;
65045;SDS011;54657;52.022;5.534;2022-12-18T03:11:51;26.92;;;14.07;;
65045;SDS011;54657;52.022;5.534;2022-12-18T03:14:39;28.45;;;14.23;;
65045;SDS011;54657;52.022;5.534;2022-12-18T03:17:07;29.38;;;13.18;;
65045;SDS011;54657;52.022;5.534;2022-12-18T03:19:36;27.92;;;14.73;;
65045;SDS011;54657;52.022;5.534;2022-12-18T03:22:04;29.60;;;14.40;;
65045;SDS011;54657;52.022;5.534;2022-12-18T03:24:32;28.95;;;13.38;;
65045;SDS011;54657;52.022;5.534;2022-12-18T03:27:02;32.38;;;14.27;;
65045;SDS011;54657;52.022;5.534;2022-12-18T03:29:32;28.13;;;14.65;;
65045;SDS011;54657;52.022;5.534;2022-12-18T03:32:07;28.20;;;13.55;;
65045;SDS011;54657;52.022;5.534;2022-12-18T03:34:41;29.23;;;13.43;;
65045;SDS011;54657;52.022;5.534;2022-12-18T03:37:09;26.05;;;13.18;;
65045;SDS011;54657;52.022;5.534;2022-12-18T03:39:34;26.52;;;14.18;;
65045;SDS011;54657;52.022;5.534;2022-12-18T03:42:05;26.02;;;13.18;;
65045;SDS011;54657;52.022;5.534;2022-12-18T03:47:25;25.98;;;13.80;;
65045;SDS011;54657;52.022;5.534;2022-12-18T03:50:16;28.80;;;13.75;;
65045;SDS011;54657;52.022;5.534;2022-12-18T03:55:21;24.42;;;12.90;;
65045;SDS011;54657;52.022;5.534;2022-12-18T03:57:50;25.42;;;13.82;;
65045;SDS011;54657;52.022;5.534;2022-12-18T04:00:17;25.55;;;12.68;;
65045;SDS011;54657;52.022;5.534;2022-12-18T04:02:45;22.75;;;12.48;;
65045;SDS011;54657;52.022;5.534;2022-12-18T04:05:15;25.73;;;12.40;;
65045;SDS011;54657;52.022;5.534;2022-12-18T04:07:41;25.20;;;12.90;;
65045;SDS011;54657;52.022;5.534;2022-12-18T04:10:09;23.98;;;13.38;;
65045;SDS011;54657;52.022;5.534;2022-12-18T04:12:36;24.77;;;13.07;;
65045;SDS011;54657;52.022;5.534;2022-12-18T04:15:02;24.25;;;12.20;;
65045;SDS011;54657;52.022;5.534;2022-12-18T04:17:28;21.58;;;12.75;;
65045;SDS011;54657;52.022;5.534;2022-12-18T04:19:54;22.33;;;11.70;;
65045;SDS011;54657;52.022;5.534;2022-12-18T04:22:19;24.80;;;12.98;;
65045;SDS011;54657;52.022;5.534;2022-12-18T04:24:45;21.48;;;12.40;;
65045;SDS011;54657;52.022;5.534;2022-12-18T04:27:10;21.95;;;11.65;;
65045;SDS011;54657;52.022;5.534;2022-12-18T04:29:36;25.80;;;12.35;;
65045;SDS011;54657;52.022;5.534;2022-12-18T04:32:01;25.58;;;12.02;;
65045;SDS011;54657;52.022;5.534;2022-12-18T04:34:27;25.63;;;12.30;;
65045;SDS011;54657;52.022;5.534;2022-12-18T04:36:53;20.75;;;10.82;;
65045;SDS011;54657;52.022;5.534;2022-12-18T04:39:18;21.38;;;11.68;;
65045;SDS011;54657;52.022;5.534;2022-12-18T04:41:44;22.10;;;11.93;;
65045;SDS011;54657;52.022;5.534;2022-12-18T04:44:09;23.27;;;11.38;;
65045;SDS011;54657;52.022;5.534;2022-12-18T04:46:35;19.35;;;10.88;;
65045;SDS011;54657;52.022;5.534;2022-12-18T04:49:00;22.05;;;11.63;;
65045;SDS011;54657;52.022;5.534;2022-12-18T04:51:26;23.92;;;12.52;;
65045;SDS011;54657;52.022;5.534;2022-12-18T04:53:52;22.08;;;11.45;;
65045;SDS011;54657;52.022;5.534;2022-12-18T04:56:18;21.75;;;11.20;;
65045;SDS011;54657;52.022;5.534;2022-12-18T04:58:44;21.65;;;10.90;;
65045;SDS011;54657;52.022;5.534;2022-12-18T05:01:10;19.45;;;10.93;;
65045;SDS011;54657;52.022;5.534;2022-12-18T05:03:37;23.45;;;10.70;;
65045;SDS011;54657;52.022;5.534;2022-12-18T05:06:03;22.20;;;11.90;;
65045;SDS011;54657;52.022;5.534;2022-12-18T05:08:29;18.40;;;10.75;;
65045;SDS011;54657;52.022;5.534;2022-12-18T05:11:06;19.25;;;11.05;;
65045;SDS011;54657;52.022;5.534;2022-12-18T05:13:35;19.30;;;10.48;;
65045;SDS011;54657;52.022;5.534;2022-12-18T05:16:01;23.30;;;11.57;;
65045;SDS011;54657;52.022;5.534;2022-12-18T05:18:27;21.27;;;10.88;;
65045;SDS011;54657;52.022;5.534;2022-12-18T05:20:54;25.02;;;11.27;;
65045;SDS011;54657;52.022;5.534;2022-12-18T05:23:20;21.50;;;10.73;;
65045;SDS011;54657;52.022;5.534;2022-12-18T05:25:50;18.02;;;10.35;;
65045;SDS011;54657;52.022;5.534;2022-12-18T05:28:17;17.77;;;10.00;;
65045;SDS011;54657;52.022;5.534;2022-12-18T05:30:42;18.65;;;10.40;;
65045;SDS011;54657;52.022;5.534;2022-12-18T05:33:12;17.02;;;10.52;;
65045;SDS011;54657;52.022;5.534;2022-12-18T05:35:37;17.63;;;10.07;;
65045;SDS011;54657;52.022;5.534;2022-12-18T05:38:03;22.27;;;10.95;;
65045;SDS011;54657;52.022;5.534;2022-12-18T05:40:28;15.98;;;9.63;;
65045;SDS011;54657;52.022;5.534;2022-12-18T05:42:54;17.13;;;9.52;;
65045;SDS011;54657;52.022;5.534;2022-12-18T05:45:19;22.75;;;10.00;;
65045;SDS011;54657;52.022;5.534;2022-12-18T05:47:45;14.40;;;8.82;;
65045;SDS011;54657;52.022;5.534;2022-12-18T05:50:10;20.13;;;10.43;;
65045;SDS011;54657;52.022;5.534;2022-12-18T05:52:36;17.60;;;9.75;;
65045;SDS011;54657;52.022;5.534;2022-12-18T05:55:01;18.52;;;10.07;;
65045;SDS011;54657;52.022;5.534;2022-12-18T05:57:27;15.20;;;8.68;;
65045;SDS011;54657;52.022;5.534;2022-12-18T05:59:53;18.13;;;9.52;;
65045;SDS011;54657;52.022;5.534;2022-12-18T06:02:18;17.70;;;10.07;;
65045;SDS011;54657;52.022;5.534;2022-12-18T06:04:45;20.83;;;9.23;;
65045;SDS011;54657;52.022;5.534;2022-12-18T06:07:11;17.33;;;9.13;;
65045;SDS011;54657;52.022;5.534;2022-12-18T06:09:37;20.20;;;9.70;;
65045;SDS011;54657;52.022;5.534;2022-12-18T06:12:03;20.17;;;9.60;;
65045;SDS011;54657;52.022;5.534;2022-12-18T06:14:29;17.13;;;9.52;;
65045;SDS011;54657;52.022;5.534;2022-12-18T06:16:54;19.58;;;10.05;;
65045;SDS011;54657;52.022;5.534;2022-12-18T06:19:20;16.88;;;9.60;;
65045;SDS011;54657;52.022;5.534;2022-12-18T06:21:45;15.77;;;8.88;;
65045;SDS011;54657;52.022;5.534;2022-12-18T06:24:11;19.60;;;9.20;;
65045;SDS011;54657;52.022;5.534;2022-12-18T06:26:38;15.43;;;9.35;;
65045;SDS011;54657;52.022;5.534;2022-12-18T06:29:03;17.35;;;9.57;;
65045;SDS011;54657;52.022;5.534;2022-12-18T06:31:29;19.02;;;9.40;;
65045;SDS011;54657;52.022;5.534;2022-12-18T06:33:55;16.83;;;9.57;;
65045;SDS011;54657;52.022;5.534;2022-12-18T06:36:21;16.85;;;9.30;;
65045;SDS011;54657;52.022;5.534;2022-12-18T06:38:46;14.63;;;8.90;;
65045;SDS011;54657;52.022;5.534;2022-12-18T06:41:13;15.55;;;8.30;;
65045;SDS011;54657;52.022;5.534;2022-12-18T06:43:40;17.17;;;8.90;;
65045;SDS011;54657;52.022;5.534;2022-12-18T06:46:06;17.05;;;9.40;;
65045;SDS011;54657;52.022;5.534;2022-12-18T06:48:32;16.25;;;8.52;;
65045;SDS011;54657;52.022;5.534;2022-12-18T06:50:58;15.13;;;9.05;;
65045;SDS011;54657;52.022;5.534;2022-12-18T06:53:24;14.80;;;8.95;;
65045;SDS011;54657;52.022;5.534;2022-12-18T06:55:50;17.45;;;9.60;;
65045;SDS011;54657;52.022;5.534;2022-12-18T06:58:16;18.80;;;9.43;;
65045;SDS011;54657;52.022;5.534;2022-12-18T07:00:42;16.77;;;8.85;;
65045;SDS011;54657;52.022;5.534;2022-12-18T07:03:07;15.55;;;9.25;;
65045;SDS011;54657;52.022;5.534;2022-12-18T07:05:33;16.63;;;9.68;;
65045;SDS011;54657;52.022;5.534;2022-12-18T07:07:59;15.88;;;8.82;;
65045;SDS011;54657;52.022;5.534;2022-12-18T07:10:24;14.98;;;8.20;;
65045;SDS011;54657;52.022;5.534;2022-12-18T07:12:50;15.77;;;8.57;;
65045;SDS011;54657;52.022;5.534;2022-12-18T07:15:15;16.85;;;9.40;;
65045;SDS011;54657;52.022;5.534;2022-12-18T07:17:41;18.25;;;9.25;;
65045;SDS011;54657;52.022;5.534;2022-12-18T07:20:07;13.43;;;9.23;;
65045;SDS011;54657;52.022;5.534;2022-12-18T07:22:33;14.25;;;8.00;;
65045;SDS011;54657;52.022;5.534;2022-12-18T07:24:58;13.30;;;8.70;;
65045;SDS011;54657;52.022;5.534;2022-12-18T07:27:24;15.18;;;8.40;;
65045;SDS011;54657;52.022;5.534;2022-12-18T07:29:49;16.08;;;9.23;;
65045;SDS011;54657;52.022;5.534;2022-12-18T07:32:15;13.65;;;8.93;;
65045;SDS011;54657;52.022;5.534;2022-12-18T07:34:41;18.17;;;9.00;;
65045;SDS011;54657;52.022;5.534;2022-12-18T07:37:06;15.00;;;8.65;;
65045;SDS011;54657;52.022;5.534;2022-12-18T07:39:32;15.50;;;8.63;;
65045;SDS011;54657;52.022;5.534;2022-12-18T07:41:57;18.33;;;9.27;;
65045;SDS011;54657;52.022;5.534;2022-12-18T07:44:42;17.45;;;9.10;;
65045;SDS011;54657;52.022;5.534;2022-12-18T07:47:07;15.48;;;9.00;;
65045;SDS011;54657;52.022;5.534;2022-12-18T07:49:33;16.58;;;8.88;;
65045;SDS011;54657;52.022;5.534;2022-12-18T07:51:58;15.23;;;8.43;;
65045;SDS011;54657;52.022;5.534;2022-12-18T07:54:24;17.35;;;8.90;;
65045;SDS011;54657;52.022;5.534;2022-12-18T07:56:50;13.95;;;8.52;;
65045;SDS011;54657;52.022;5.534;2022-12-18T07:59:16;14.63;;;8.63;;
65045;SDS011;54657;52.022;5.534;2022-12-18T08:01:42;14.20;;;8.75;;
65045;SDS011;54657;52.022;5.534;2022-12-18T08:04:08;14.25;;;9.20;;
65045;SDS011;54657;52.022;5.534;2022-12-18T08:06:33;14.13;;;8.70;;
65045;SDS011;54657;52.022;5.534;2022-12-18T08:08:59;16.90;;;8.73;;
65045;SDS011;54657;52.022;5.534;2022-12-18T08:11:25;15.20;;;8.25;;
65045;SDS011;54657;52.022;5.534;2022-12-18T08:13:52;15.65;;;8.35;;
65045;SDS011;54657;52.022;5.534;2022-12-18T08:16:18;16.13;;;8.90;;
65045;SDS011;54657;52.022;5.534;2022-12-18T08:18:44;13.45;;;8.45;;
65045;SDS011;54657;52.022;5.534;2022-12-18T08:21:11;13.30;;;8.45;;
65045;SDS011;54657;52.022;5.534;2022-12-18T08:23:38;19.27;;;9.07;;
65045;SDS011;54657;52.022;5.534;2022-12-18T08:26:04;14.38;;;8.65;;
65045;SDS011;54657;52.022;5.534;2022-12-18T08:28:30;15.05;;;9.00;;
65045;SDS011;54657;52.022;5.534;2022-12-18T08:30:56;13.70;;;8.73;;
65045;SDS011;54657;52.022;5.534;2022-12-18T08:33:21;12.73;;;7.50;;
65045;SDS011;54657;52.022;5.534;2022-12-18T08:35:47;14.40;;;7.93;;
65045;SDS011;54657;52.022;5.534;2022-12-18T08:38:12;13.07;;;7.82;;
65045;SDS011;54657;52.022;5.534;2022-12-18T08:40:38;14.88;;;7.97;;
65045;SDS011;54657;52.022;5.534;2022-12-18T08:43:03;13.52;;;9.10;;
65045;SDS011;54657;52.022;5.534;2022-12-18T08:45:47;13.30;;;8.48;;
65045;SDS011;54657;52.022;5.534;2022-12-18T08:48:13;15.93;;;8.43;;
65045;SDS011;54657;52.022;5.534;2022-12-18T08:50:39;14.05;;;7.97;;
65045;SDS011;54657;52.022;5.534;2022-12-18T08:53:05;15.35;;;8.90;;
65045;SDS011;54657;52.022;5.534;2022-12-18T08:55:30;10.98;;;7.43;;
65045;SDS011;54657;52.022;5.534;2022-12-18T08:57:56;16.00;;;8.18;;
65045;SDS011;54657;52.022;5.534;2022-12-18T09:00:21;13.63;;;8.25;;
65045;SDS011;54657;52.022;5.534;2022-12-18T09:02:47;16.33;;;8.68;;
65045;SDS011;54657;52.022;5.534;2022-12-18T09:05:13;14.82;;;8.63;;
65045;SDS011;54657;52.022;5.534;2022-12-18T09:07:38;11.73;;;7.28;;
65045;SDS011;54657;52.022;5.534;2022-12-18T09:10:04;15.27;;;9.32;;
65045;SDS011;54657;52.022;5.534;2022-12-18T09:12:30;11.15;;;7.40;;
65045;SDS011;54657;52.022;5.534;2022-12-18T09:14:56;14.85;;;8.23;;
65045;SDS011;54657;52.022;5.534;2022-12-18T09:17:22;12.45;;;7.80;;
65045;SDS011;54657;52.022;5.534;2022-12-18T09:19:47;12.00;;;6.85;;
65045;SDS011;54657;52.022;5.534;2022-12-18T09:22:13;13.30;;;8.18;;
65045;SDS011;54657;52.022;5.534;2022-12-18T09:24:39;13.77;;;7.80;;
65045;SDS011;54657;52.022;5.534;2022-12-18T09:27:04;15.50;;;8.18;;
65045;SDS011;54657;52.022;5.534;2022-12-18T09:29:30;13.80;;;7.93;;
65045;SDS011;54657;52.022;5.534;2022-12-18T09:31:55;12.73;;;7.68;;
65045;SDS011;54657;52.022;5.534;2022-12-18T09:34:21;13.63;;;8.43;;
65045;SDS011;54657;52.022;5.534;2022-12-18T09:36:47;13.38;;;7.97;;
65045;SDS011;54657;52.022;5.534;2022-12-18T09:39:13;12.02;;;7.32;;
65045;SDS011;54657;52.022;5.534;2022-12-18T09:46:43;12.80;;;7.95;;
65045;SDS011;54657;52.022;5.534;2022-12-18T09:49:18;12.80;;;7.32;;
65045;SDS011;54657;52.022;5.534;2022-12-18T09:51:54;12.95;;;7.97;;
65045;SDS011;54657;52.022;5.534;2022-12-18T09:55:01;12.43;;;7.50;;
65045;SDS011;54657;52.022;5.534;2022-12-18T09:57:35;14.93;;;7.65;;
65045;SDS011;54657;52.022;5.534;2022-12-18T10:00:17;11.82;;;7.10;;
65045;SDS011;54657;52.022;5.534;2022-12-18T10:02:46;14.20;;;7.68;;
65045;SDS011;54657;52.022;5.534;2022-12-18T10:05:16;10.63;;;7.10;;
65045;SDS011;54657;52.022;5.534;2022-12-18T10:08:03;14.20;;;7.72;;
65045;SDS011;54657;52.022;5.534;2022-12-18T10:13:29;13.55;;;7.00;;
65045;SDS011;54657;52.022;5.534;2022-12-18T10:16:28;12.23;;;7.78;;
65045;SDS011;54657;52.022;5.534;2022-12-18T10:21:42;12.98;;;7.80;;
65045;SDS011;54657;52.022;5.534;2022-12-18T10:24:24;12.05;;;6.55;;
65045;SDS011;54657;52.022;5.534;2022-12-18T10:27:17;14.65;;;8.32;;
65045;SDS011;54657;52.022;5.534;2022-12-18T10:29:46;14.48;;;8.05;;
65045;SDS011;54657;52.022;5.534;2022-12-18T10:32:15;10.80;;;7.30;;
65045;SDS011;54657;52.022;5.534;2022-12-18T10:34:47;12.38;;;7.57;;
65045;SDS011;54657;52.022;5.534;2022-12-18T10:37:16;10.32;;;6.90;;
65045;SDS011;54657;52.022;5.534;2022-12-18T10:39:46;15.93;;;7.90;;
65045;SDS011;54657;52.022;5.534;2022-12-18T10:42:29;11.93;;;7.88;;
65045;SDS011;54657;52.022;5.534;2022-12-18T10:45:28;13.52;;;7.13;;
65045;SDS011;54657;52.022;5.534;2022-12-18T10:47:48;12.18;;;7.22;;
65045;SDS011;54657;52.022;5.534;2022-12-18T10:50:18;12.77;;;7.80;;
65045;SDS011;54657;52.022;5.534;2022-12-18T10:52:53;11.32;;;6.68;;
65045;SDS011;54657;52.022;5.534;2022-12-18T10:55:20;12.40;;;7.28;;
65045;SDS011;54657;52.022;5.534;2022-12-18T10:57:46;11.07;;;6.72;;
65045;SDS011;54657;52.022;5.534;2022-12-18T11:00:30;9.88;;;6.95;;
65045;SDS011;54657;52.022;5.534;2022-12-18T11:02:56;11.57;;;7.07;;
65045;SDS011;54657;52.022;5.534;2022-12-18T11:07:56;15.27;;;8.20;;
65045;SDS011;54657;52.022;5.534;2022-12-18T11:10:35;11.63;;;7.63;;
65045;SDS011;54657;52.022;5.534;2022-12-18T11:13:14;10.75;;;7.05;;
65045;SDS011;54657;52.022;5.534;2022-12-18T11:18:16;13.85;;;7.10;;
65045;SDS011;54657;52.022;5.534;2022-12-18T11:20:42;13.27;;;6.95;;
65045;SDS011;54657;52.022;5.534;2022-12-18T11:23:15;13.63;;;7.35;;
65045;SDS011;54657;52.022;5.534;2022-12-18T11:25:40;14.40;;;8.27;;
65045;SDS011;54657;52.022;5.534;2022-12-18T11:28:35;11.15;;;6.80;;
65045;SDS011;54657;52.022;5.534;2022-12-18T11:31:15;10.80;;;6.72;;
65045;SDS011;54657;52.022;5.534;2022-12-18T11:36:25;12.70;;;6.75;;
65045;SDS011;54657;52.022;5.534;2022-12-18T11:38:56;11.95;;;7.53;;
65045;SDS011;54657;52.022;5.534;2022-12-18T11:41:34;13.82;;;8.40;;
65045;SDS011;54657;52.022;5.534;2022-12-18T11:44:29;14.57;;;7.90;;
65045;SDS011;54657;52.022;5.534;2022-12-18T11:47:03;11.50;;;7.47;;
65045;SDS011;54657;52.022;5.534;2022-12-18T11:49:59;18.45;;;8.68;;
65045;SDS011;54657;52.022;5.534;2022-12-18T11:52:27;10.45;;;7.32;;
65045;SDS011;54657;52.022;5.534;2022-12-18T11:54:58;12.57;;;6.90;;
65045;SDS011;54657;52.022;5.534;2022-12-18T12:00:04;13.90;;;8.73;;
65045;SDS011;54657;52.022;5.534;2022-12-18T12:16:58;13.35;;;8.45;;
65045;SDS011;54657;52.022;5.534;2022-12-18T12:25:11;13.80;;;8.57;;
65045;SDS011;54657;52.022;5.534;2022-12-18T12:28:02;16.67;;;9.32;;
65045;SDS011;54657;52.022;5.534;2022-12-18T12:36:05;15.48;;;9.30;;
65045;SDS011;54657;52.022;5.534;2022-12-18T12:38:48;14.75;;;9.05;;
65045;SDS011;54657;52.022;5.534;2022-12-18T12:41:19;14.48;;;9.20;;
65045;SDS011;54657;52.022;5.534;2022-12-18T12:44:08;18.85;;;11.00;;
65045;SDS011;54657;52.022;5.534;2022-12-18T12:46:41;15.05;;;9.38;;
65045;SDS011;54657;52.022;5.534;2022-12-18T12:49:10;12.02;;;8.98;;
65045;SDS011;54657;52.022;5.534;2022-12-18T12:51:43;16.38;;;8.52;;
65045;SDS011;54657;52.022;5.534;2022-12-18T12:54:31;15.50;;;8.68;;
65045;SDS011;54657;52.022;5.534;2022-12-18T12:57:11;16.55;;;10.15;;
65045;SDS011;54657;52.022;5.534;2022-12-18T13:08:54;21.10;;;12.35;;
65045;SDS011;54657;52.022;5.534;2022-12-18T13:11:34;16.60;;;11.15;;
65045;SDS011;54657;52.022;5.534;2022-12-18T13:14:38;15.20;;;8.65;;
65045;SDS011;54657;52.022;5.534;2022-12-18T13:23:33;15.27;;;9.77;;
65045;SDS011;54657;52.022;5.534;2022-12-18T13:32:00;12.57;;;8.63;;
65045;SDS011;54657;52.022;5.534;2022-12-18T13:34:27;14.88;;;8.85;;
65045;SDS011;54657;52.022;5.534;2022-12-18T13:36:56;12.20;;;8.55;;
65045;SDS011;54657;52.022;5.534;2022-12-18T13:47:37;15.50;;;9.45;;
65045;SDS011;54657;52.022;5.534;2022-12-18T13:59:21;22.67;;;11.65;;
65045;SDS011;54657;52.022;5.534;2022-12-18T14:05:51;14.68;;;8.60;;
65045;SDS011;54657;52.022;5.534;2022-12-18T14:08:44;16.88;;;10.05;;
65045;SDS011;54657;52.022;5.534;2022-12-18T14:24:39;14.45;;;8.38;;
65045;SDS011;54657;52.022;5.534;2022-12-18T14:30:41;13.43;;;8.75;;
65045;SDS011;54657;52.022;5.534;2022-12-18T14:33:18;14.73;;;8.98;;
65045;SDS011;54657;52.022;5.534;2022-12-18T14:36:05;15.57;;;9.85;;
65045;SDS011;54657;52.022;5.534;2022-12-18T14:38:58;21.40;;;10.10;;
65045;SDS011;54657;52.022;5.534;2022-12-18T14:41:24;20.10;;;10.13;;
65045;SDS011;54657;52.022;5.534;2022-12-18T14:43:51;17.35;;;9.70;;
65045;SDS011;54657;52.022;5.534;2022-12-18T14:46:32;22.27;;;11.90;;
65045;SDS011;54657;52.022;5.534;2022-12-18T14:49:14;16.73;;;10.15;;
65045;SDS011;54657;52.022;5.534;2022-12-18T14:51:55;22.75;;;12.88;;
65045;SDS011;54657;52.022;5.534;2022-12-18T14:54:28;19.50;;;11.73;;
65045;SDS011;54657;52.022;5.534;2022-12-18T14:59:50;19.17;;;10.40;;
65045;SDS011;54657;52.022;5.534;2022-12-18T15:02:27;18.77;;;11.63;;
65045;SDS011;54657;52.022;5.534;2022-12-18T15:05:05;18.17;;;11.38;;
65045;SDS011;54657;52.022;5.534;2022-12-18T15:07:57;20.90;;;11.10;;
65045;SDS011;54657;52.022;5.534;2022-12-18T15:10:28;21.55;;;11.88;;
65045;SDS011;54657;52.022;5.534;2022-12-18T15:20:41;19.55;;;11.25;;
65045;SDS011;54657;52.022;5.534;2022-12-18T15:23:17;19.98;;;10.65;;
65045;SDS011;54657;52.022;5.534;2022-12-18T15:25:48;18.38;;;10.35;;
65045;SDS011;54657;52.022;5.534;2022-12-18T15:28:25;23.73;;;12.88;;
65045;SDS011;54657;52.022;5.534;2022-12-18T15:33:24;21.80;;;13.05;;
65045;SDS011;54657;52.022;5.534;2022-12-18T15:36:02;22.98;;;14.07;;
65045;SDS011;54657;52.022;5.534;2022-12-18T15:38:30;18.13;;;10.93;;
65045;SDS011;54657;52.022;5.534;2022-12-18T15:40:56;17.75;;;10.90;;
65045;SDS011;54657;52.022;5.534;2022-12-18T15:43:22;18.45;;;11.02;;
65045;SDS011;54657;52.022;5.534;2022-12-18T15:48:26;17.92;;;11.07;;
65045;SDS011;54657;52.022;5.534;2022-12-18T15:50:53;20.85;;;11.57;;
65045;SDS011;54657;52.022;5.534;2022-12-18T15:53:21;18.02;;;9.50;;
65045;SDS011;54657;52.022;5.534;2022-12-18T15:55:54;19.48;;;10.95;;
65045;SDS011;54657;52.022;5.534;2022-12-18T15:58:38;23.60;;;11.80;;
65045;SDS011;54657;52.022;5.534;2022-12-18T16:01:03;20.67;;;12.73;;
65045;SDS011;54657;52.022;5.534;2022-12-18T16:03:29;22.58;;;12.57;;
65045;SDS011;54657;52.022;5.534;2022-12-18T16:05:54;23.55;;;13.82;;
65045;SDS011;54657;52.022;5.534;2022-12-18T16:08:20;22.02;;;11.98;;
65045;SDS011;54657;52.022;5.534;2022-12-18T16:10:46;20.05;;;11.52;;
65045;SDS011;54657;52.022;5.534;2022-12-18T16:13:12;17.83;;;11.02;;
65045;SDS011;54657;52.022;5.534;2022-12-18T16:15:41;18.40;;;10.73;;
65045;SDS011;54657;52.022;5.534;2022-12-18T16:18:10;21.88;;;11.38;;
65045;SDS011;54657;52.022;5.534;2022-12-18T16:20:35;19.55;;;11.07;;
65045;SDS011;54657;52.022;5.534;2022-12-18T16:23:02;22.55;;;11.90;;
65045;SDS011;54657;52.022;5.534;2022-12-18T16:25:28;21.73;;;12.57;;
65045;SDS011;54657;52.022;5.534;2022-12-18T16:27:54;21.40;;;11.90;;
65045;SDS011;54657;52.022;5.534;2022-12-18T16:30:22;24.55;;;14.32;;
65045;SDS011;54657;52.022;5.534;2022-12-18T16:32:51;21.77;;;11.60;;
65045;SDS011;54657;52.022;5.534;2022-12-18T16:35:16;28.15;;;14.45;;
65045;SDS011;54657;52.022;5.534;2022-12-18T16:37:42;39.72;;;19.48;;
65045;SDS011;54657;52.022;5.534;2022-12-18T16:40:09;28.45;;;14.95;;
65045;SDS011;54657;52.022;5.534;2022-12-18T16:42:37;31.40;;;16.50;;
65045;SDS011;54657;52.022;5.534;2022-12-18T16:45:05;34.85;;;17.92;;
65045;SDS011;54657;52.022;5.534;2022-12-18T16:47:32;22.45;;;12.57;;
65045;SDS011;54657;52.022;5.534;2022-12-18T16:49:58;43.85;;;21.73;;
65045;SDS011;54657;52.022;5.534;2022-12-18T16:52:23;36.40;;;19.10;;
65045;SDS011;54657;52.022;5.534;2022-12-18T16:54:49;41.10;;;20.60;;
65045;SDS011;54657;52.022;5.534;2022-12-18T16:57:16;28.13;;;15.32;;
65045;SDS011;54657;52.022;5.534;2022-12-18T16:59:43;22.77;;;12.98;;
65045;SDS011;54657;52.022;5.534;2022-12-18T17:02:13;35.50;;;17.85;;
65045;SDS011;54657;52.022;5.534;2022-12-18T17:04:41;33.13;;;17.58;;
65045;SDS011;54657;52.022;5.534;2022-12-18T17:07:06;22.70;;;11.82;;
65045;SDS011;54657;52.022;5.534;2022-12-18T17:09:32;22.45;;;13.85;;
65045;SDS011;54657;52.022;5.534;2022-12-18T17:11:58;21.77;;;12.95;;
65045;SDS011;54657;52.022;5.534;2022-12-18T17:14:24;26.10;;;13.48;;
65045;SDS011;54657;52.022;5.534;2022-12-18T17:16:50;26.25;;;13.07;;